Friar, Texas
Current Conditions -  °F | °C
As of 1:55 PM on Wednesday 17 Dec 2014 (Local Time) from KRFI Reporting Station
Overcast Overcast  
Wind Chill: 47°   Ceiling: 9500
Heat Index: 47°   Visibility: 10mi
Dew Point: 37°   Wind: 3mph
Humidity: 67%   Direction: 70°ENE
Pressure: 30.18"   Gusts: NA
Location:  32.2818°N, 94.951°W
Report Text: KRFI 171955Z AUTO 07003KT 10SM OVC095 09/03 A3018 RMK AO2 T00860028
Loading
Personal Weather Stations






























Interactive Weather Map New forecast layout! Learn more

10-Day Weather Forecast

Advertisements
Track Severe Weather on mobile